createdAt,value
2023-05-14T05:39:58.045Z,26.50
2023-05-14T05:42:24.508Z,27.75
2023-05-14T05:44:50.994Z,29.00
2023-05-14T05:47:17.448Z,26.50
2023-05-14T05:49:43.882Z,27.50
2023-05-14T05:52:10.396Z,25.75
2023-05-14T05:54:36.962Z,26.00
2023-05-14T05:57:03.381Z,27.00
2023-05-14T05:59:29.813Z,24.00
2023-05-14T06:01:56.289Z,26.00
2023-05-14T06:04:22.732Z,23.33
2023-05-14T06:06:49.137Z,23.00
2023-05-14T06:09:16.089Z,23.00
2023-05-14T06:11:42.539Z,21.75
2023-05-14T06:14:08.927Z,21.50
2023-05-14T06:16:35.571Z,20.75
2023-05-14T06:19:02.257Z,20.25
2023-05-14T06:21:28.774Z,17.50
2023-05-14T06:23:55.232Z,18.25
2023-05-14T06:26:21.941Z,17.25
2023-05-14T06:28:48.336Z,15.75
2023-05-14T06:31:14.820Z,16.50
2023-05-14T06:33:41.242Z,12.50
2023-05-14T06:36:07.985Z,14.25
2023-05-14T06:38:34.409Z,14.50
2023-05-14T06:41:00.935Z,13.75
2023-05-14T06:43:27.588Z,12.00
2023-05-14T06:45:54.495Z,12.25
2023-05-14T06:48:21.126Z,10.25
2023-05-14T06:50:48.430Z,10.50
2023-05-14T06:53:15.376Z,8.50
2023-05-14T06:55:41.934Z,9.00
2023-05-14T06:58:08.435Z,9.00
2023-05-14T07:00:34.998Z,9.75
2023-05-14T07:03:01.508Z,9.25
2023-05-14T07:05:28.099Z,7.75
2023-05-14T07:07:54.558Z,8.00
2023-05-14T07:10:21.272Z,9.25
2023-05-14T07:12:47.896Z,9.00
2023-05-14T07:15:14.309Z,10.00
2023-05-14T07:17:40.938Z,10.75
2023-05-14T07:20:07.677Z,6.25
2023-05-14T07:22:34.071Z,10.50
2023-05-14T07:25:00.538Z,8.75
2023-05-14T07:27:27.084Z,8.75
2023-05-14T07:29:53.530Z,8.75
2023-05-14T07:32:19.921Z,9.75
2023-05-14T07:34:46.434Z,9.75
2023-05-14T07:37:12.851Z,7.25
2023-05-14T07:39:41.710Z,8.00
2023-05-14T07:42:08.246Z,8.25
2023-05-14T07:44:34.657Z,7.75
2023-05-14T07:47:01.154Z,7.00
2023-05-14T07:49:27.600Z,7.00
2023-05-14T07:51:55.813Z,7.50
2023-05-14T07:54:22.361Z,8.75
2023-05-14T07:56:48.761Z,5.75
2023-05-14T07:59:15.140Z,5.25
2023-05-14T08:01:42.028Z,6.25
2023-05-14T08:04:09.049Z,7.75
2023-05-14T08:06:35.630Z,5.50
2023-05-14T08:09:02.125Z,5.75
2023-05-14T08:11:28.542Z,5.25
2023-05-14T08:13:55.051Z,5.00
2023-05-14T08:16:21.562Z,7.25
2023-05-14T08:18:48.227Z,6.00
2023-05-14T08:21:14.768Z,6.50
2023-05-14T08:23:41.164Z,6.75
2023-05-14T08:26:07.607Z,5.00
2023-05-14T08:28:34.042Z,6.00
2023-05-14T08:31:00.512Z,4.50
2023-05-14T08:33:26.921Z,4.00
2023-05-14T08:35:53.447Z,2.25
2023-05-14T08:38:19.964Z,4.75
2023-05-14T08:40:48.556Z,4.00
2023-05-14T08:43:19.550Z,5.00
2023-05-14T08:45:46.646Z,4.00
2023-05-14T08:48:14.813Z,8.50
2023-05-14T08:50:41.455Z,4.50
2023-05-14T08:53:07.927Z,3.75
2023-05-14T08:55:34.353Z,4.75
2023-05-14T08:58:01.472Z,4.25
2023-05-14T09:00:28.047Z,4.00
2023-05-14T09:02:55.250Z,4.75
2023-05-14T09:05:22.171Z,4.75
2023-05-14T09:07:48.617Z,4.00
2023-05-14T09:10:15.670Z,6.00
2023-05-14T09:12:42.154Z,4.25
2023-05-14T09:15:08.655Z,4.50
2023-05-14T09:17:35.487Z,5.25
2023-05-14T09:20:02.032Z,3.50
2023-05-14T09:22:31.921Z,4.00
2023-05-14T09:25:05.495Z,3.00
2023-05-14T09:27:32.736Z,4.00
2023-05-14T09:30:17.556Z,4.75
2023-05-14T09:32:44.547Z,4.00
2023-05-14T09:35:11.887Z,4.25
2023-05-14T09:37:38.314Z,3.00
2023-05-14T09:40:09.213Z,4.50
2023-05-14T09:42:35.673Z,2.50
2023-05-14T09:45:02.110Z,4.00
2023-05-14T09:47:28.851Z,2.75
2023-05-14T09:49:55.402Z,2.00
2023-05-14T09:52:23.736Z,3.75
2023-05-14T09:54:53.460Z,3.00
2023-05-14T09:57:20.425Z,3.00
2023-05-14T09:59:46.959Z,2.75
2023-05-14T10:02:21.810Z,2.75
2023-05-14T10:04:50.039Z,1.75
2023-05-14T10:07:18.731Z,2.50
2023-05-14T10:09:46.347Z,2.00
2023-05-14T10:12:14.142Z,2.25
2023-05-14T10:14:41.166Z,3.00
2023-05-14T10:17:07.914Z,3.75
2023-05-14T10:19:37.330Z,3.00
2023-05-14T10:22:04.687Z,4.00
2023-05-14T10:24:31.690Z,3.00
2023-05-14T10:26:58.936Z,2.00
2023-05-14T10:29:35.453Z,2.00
2023-05-14T10:32:06.694Z,1.25
2023-05-14T10:34:41.041Z,3.00
2023-05-14T10:37:10.640Z,2.00
2023-05-14T10:39:44.512Z,2.75
2023-05-14T10:42:12.508Z,2.50
2023-05-14T10:44:41.105Z,3.00
2023-05-14T10:47:08.043Z,2.00
2023-05-14T10:49:43.017Z,2.00
2023-05-14T10:52:11.061Z,2.00
2023-05-14T10:54:37.658Z,3.00
2023-05-14T10:57:04.215Z,1.00
2023-05-14T10:59:33.569Z,1.75
2023-05-14T11:02:00.150Z,1.75
2023-05-14T11:04:27.780Z,2.00
2023-05-14T11:06:56.243Z,2.75
2023-05-14T11:09:23.996Z,2.00
2023-05-14T11:11:50.683Z,7.50
2023-05-14T11:14:18.121Z,5.00
2023-05-14T11:16:44.703Z,2.75
2023-05-14T11:19:11.477Z,3.00
2023-05-14T11:21:38.008Z,5.75
2023-05-14T11:24:05.619Z,6.00
2023-05-14T11:26:32.155Z,7.00
2023-05-14T11:28:58.657Z,1.75
2023-05-14T11:31:25.540Z,2.50
2023-05-14T11:33:52.423Z,2.75
2023-05-14T11:36:19.300Z,2.00
2023-05-14T11:38:47.537Z,3.00
2023-05-14T11:41:14.465Z,1.00
2023-05-14T11:43:41.707Z,1.75
2023-05-14T11:46:08.265Z,2.75
2023-05-14T11:48:34.919Z,2.00
2023-05-14T11:51:01.431Z,1.00
2023-05-14T11:53:30.306Z,3.25
2023-05-14T11:55:59.740Z,2.00
2023-05-14T11:58:26.623Z,1.25
2023-05-14T12:00:53.545Z,1.75
2023-05-14T12:03:26.891Z,3.00
2023-05-14T12:06:00.222Z,1.75
2023-05-14T12:08:28.235Z,2.00
2023-05-14T12:10:54.822Z,2.00
2023-05-14T12:13:24.170Z,1.25
2023-05-14T12:15:54.857Z,2.00
2023-05-14T12:18:24.984Z,1.00
2023-05-14T12:20:52.279Z,2.00
2023-05-14T12:23:29.421Z,2.00
2023-05-14T12:25:56.523Z,2.25
2023-05-14T12:28:23.389Z,2.00
2023-05-14T12:30:56.600Z,1.50
2023-05-14T12:33:24.275Z,2.00
2023-05-14T12:35:50.895Z,2.75
2023-05-14T12:38:17.506Z,2.25
2023-05-14T12:40:44.228Z,3.00
2023-05-14T12:43:10.848Z,4.50
2023-05-14T12:45:37.364Z,2.25
2023-05-14T12:48:04.044Z,1.25
2023-05-14T12:50:30.527Z,0.75
2023-05-14T12:52:57.969Z,2.00
2023-05-14T12:55:24.749Z,2.50
2023-05-14T12:57:51.275Z,1.75
2023-05-14T13:00:17.881Z,4.00
2023-05-14T13:02:44.521Z,2.00
2023-05-14T13:05:11.472Z,2.00
2023-05-14T13:07:38.475Z,1.75
2023-05-14T13:10:08.329Z,3.00
2023-05-14T13:12:34.944Z,2.75
2023-05-14T13:15:01.552Z,2.00
2023-05-14T13:17:28.099Z,2.75
2023-05-14T13:19:54.727Z,1.75
2023-05-14T13:22:21.316Z,2.50
2023-05-14T13:24:47.804Z,4.25
2023-05-14T13:27:14.191Z,1.25
2023-05-14T13:29:40.988Z,3.00
2023-05-14T13:32:07.797Z,3.00
2023-05-14T13:34:34.644Z,4.00
2023-05-14T13:37:01.340Z,3.00
2023-05-14T13:39:27.961Z,3.00
2023-05-14T13:41:57.105Z,3.25
2023-05-14T13:44:23.825Z,2.75
2023-05-14T13:46:50.772Z,1.75
2023-05-14T13:49:17.454Z,2.50
2023-05-14T13:51:44.175Z,3.00
2023-05-14T13:54:10.641Z,3.00
2023-05-14T13:56:37.405Z,3.00
2023-05-14T13:59:04.217Z,2.50
2023-05-14T14:01:31.115Z,3.00
2023-05-14T14:03:57.901Z,4.75
2023-05-14T14:06:25.637Z,2.25
2023-05-14T14:08:52.122Z,3.25
2023-05-14T14:11:18.658Z,3.25
2023-05-14T14:13:46.636Z,3.00
2023-05-14T14:16:13.794Z,3.75
2023-05-14T14:18:40.748Z,3.25
2023-05-14T14:21:07.400Z,4.00
2023-05-14T14:23:33.938Z,3.75
2023-05-14T14:26:00.900Z,4.75
2023-05-14T14:28:27.349Z,3.00
2023-05-14T14:30:54.074Z,5.25
2023-05-14T14:33:20.560Z,3.25
2023-05-14T14:35:47.204Z,4.50
2023-05-14T14:38:14.448Z,5.00
2023-05-14T14:40:40.932Z,3.75
2023-05-14T14:43:07.481Z,4.00
2023-05-14T14:45:34.112Z,5.75
2023-05-14T14:48:19.067Z,5.25
2023-05-14T14:50:45.682Z,4.75
2023-05-14T14:53:12.327Z,4.00
2023-05-14T14:55:39.194Z,4.50
2023-05-14T14:58:05.715Z,6.00
2023-05-14T15:00:32.194Z,4.50
2023-05-14T15:02:59.086Z,4.75
2023-05-14T15:05:26.023Z,3.00
2023-05-14T15:07:53.100Z,5.50
2023-05-14T15:10:19.644Z,3.75
2023-05-14T15:12:46.213Z,5.00
2023-05-14T15:15:12.967Z,4.00
2023-05-14T15:17:39.926Z,2.75
2023-05-14T15:20:07.828Z,4.00
2023-05-14T15:22:34.380Z,3.75
2023-05-14T15:25:00.848Z,3.25
2023-05-14T15:27:27.374Z,3.75
2023-05-14T15:29:54.199Z,3.00
2023-05-14T15:32:20.992Z,4.25
2023-05-14T15:34:47.748Z,9.25
2023-05-14T15:37:14.352Z,3.25
2023-05-14T15:39:40.916Z,4.50
2023-05-14T15:42:07.448Z,5.50
2023-05-14T15:44:36.011Z,3.75
2023-05-14T15:47:04.719Z,4.00
2023-05-14T15:49:31.288Z,5.00
2023-05-14T15:51:57.845Z,13.75
2023-05-14T15:54:26.365Z,6.75
2023-05-14T15:56:53.501Z,8.50
2023-05-14T15:59:19.951Z,3.75
2023-05-14T16:01:46.504Z,4.75
2023-05-14T16:04:13.213Z,5.00
2023-05-14T16:06:42.351Z,3.50
2023-05-14T16:09:09.426Z,3.50
2023-05-14T16:11:36.432Z,4.00
2023-05-14T16:14:05.503Z,4.50
2023-05-14T16:16:32.257Z,3.00
2023-05-14T16:18:59.684Z,5.00
2023-05-14T16:21:26.817Z,5.50
2023-05-14T16:23:53.417Z,4.50
2023-05-14T16:26:20.215Z,4.00
2023-05-14T16:28:47.190Z,3.75
2023-05-14T16:31:15.408Z,4.00
2023-05-14T16:33:41.928Z,1.75
2023-05-14T16:36:09.046Z,4.25
2023-05-14T16:38:41.332Z,4.75
2023-05-14T16:41:11.318Z,4.00
2023-05-14T16:43:37.881Z,3.50
2023-05-14T16:46:04.699Z,4.00
2023-05-14T16:48:31.443Z,3.25
2023-05-14T16:50:59.558Z,4.25
2023-05-14T16:53:26.246Z,1.75
2023-05-14T16:55:52.853Z,5.00
2023-05-14T16:58:19.438Z,3.25
2023-05-14T17:00:46.009Z,2.75
2023-05-14T17:03:12.470Z,5.00
2023-05-14T17:05:39.300Z,4.00
2023-05-14T17:08:06.438Z,2.75
2023-05-14T17:10:33.561Z,4.25
2023-05-14T17:13:00.245Z,4.25
2023-05-14T17:15:27.036Z,5.00
2023-05-14T17:17:54.662Z,3.50
2023-05-14T17:20:21.417Z,4.75
2023-05-14T17:22:47.950Z,5.00
2023-05-14T17:25:14.640Z,4.00
2023-05-14T17:27:41.342Z,5.00
2023-05-14T17:30:08.128Z,5.00
2023-05-14T17:32:35.098Z,4.00
2023-05-14T17:35:01.701Z,5.75
2023-05-14T17:37:28.210Z,7.00
2023-05-14T17:39:55.155Z,6.50
2023-05-14T17:42:21.799Z,9.25
2023-05-14T17:44:48.383Z,7.25
2023-05-14T17:47:14.815Z,9.00
2023-05-14T17:49:41.644Z,8.75
2023-05-14T17:52:08.454Z,8.25
2023-05-14T17:54:35.269Z,7.75
2023-05-14T17:57:02.036Z,8.25
2023-05-14T17:59:28.478Z,7.50
2023-05-14T18:01:55.281Z,8.25
2023-05-14T18:04:21.837Z,8.50
2023-05-14T18:06:49.438Z,6.50
2023-05-14T18:09:16.152Z,6.75
2023-05-14T18:11:43.039Z,7.00
2023-05-14T18:14:09.809Z,7.00
2023-05-14T18:16:36.977Z,7.00
2023-05-14T18:19:03.537Z,6.75
2023-05-14T18:21:30.076Z,7.00
2023-05-14T18:23:56.596Z,6.00
2023-05-14T18:26:23.153Z,8.75
2023-05-14T18:28:49.581Z,7.00
2023-05-14T18:31:16.042Z,5.75
2023-05-14T18:33:42.489Z,6.75
2023-05-14T18:36:09.028Z,7.00
2023-05-14T18:38:35.508Z,7.75
2023-05-14T18:41:02.149Z,8.00
2023-05-14T18:43:28.559Z,8.00
2023-05-14T18:45:55.071Z,8.25
2023-05-14T18:48:21.840Z,8.00
2023-05-14T18:50:48.230Z,7.50
2023-05-14T18:53:14.824Z,10.50
2023-05-14T18:55:41.442Z,9.00
2023-05-14T18:58:08.393Z,8.50
2023-05-14T19:00:34.893Z,9.00
2023-05-14T19:03:01.415Z,8.25
2023-05-14T19:05:28.028Z,9.00
2023-05-14T19:07:54.459Z,9.75
2023-05-14T19:10:20.908Z,11.00
2023-05-14T19:12:47.848Z,11.00
2023-05-14T19:15:14.283Z,15.75
2023-05-14T19:17:40.735Z,17.25
2023-05-14T19:20:08.048Z,16.75
2023-05-14T19:22:34.573Z,17.50
2023-05-14T19:25:01.442Z,16.25
2023-05-14T19:27:28.151Z,14.25
2023-05-14T19:29:54.578Z,13.50
2023-05-14T19:32:21.025Z,14.00
2023-05-14T19:34:48.422Z,15.25
2023-05-14T19:37:15.953Z,15.75
2023-05-14T19:39:42.379Z,14.00
2023-05-14T19:42:08.763Z,13.75
2023-05-14T19:44:35.185Z,12.25
2023-05-14T19:47:01.697Z,14.00
2023-05-14T19:49:28.188Z,11.25
2023-05-14T19:51:54.593Z,13.50
2023-05-14T19:54:20.985Z,13.00
2023-05-14T19:56:47.380Z,12.50
2023-05-14T19:59:13.768Z,13.25
2023-05-14T20:01:40.343Z,14.25
2023-05-14T20:04:07.354Z,14.00
2023-05-14T20:06:34.340Z,15.25
2023-05-14T20:09:01.254Z,13.00
2023-05-14T20:11:27.878Z,14.00
2023-05-14T20:13:54.269Z,14.50
2023-05-14T20:16:21.107Z,14.00
2023-05-14T20:18:47.634Z,15.75
2023-05-14T20:21:14.123Z,13.25
2023-05-14T20:23:40.851Z,16.75
2023-05-14T20:26:07.499Z,13.25
2023-05-14T20:28:37.073Z,14.00
2023-05-14T20:31:04.154Z,13.75
2023-05-14T20:33:30.804Z,13.00
2023-05-14T20:35:57.249Z,13.75
2023-05-14T20:38:25.707Z,14.00
2023-05-14T20:40:52.190Z,18.75
2023-05-14T20:43:18.578Z,14.00
2023-05-14T20:45:44.961Z,13.00
2023-05-14T20:48:15.152Z,13.25
2023-05-14T20:50:42.232Z,13.00
2023-05-14T20:53:08.688Z,14.00
2023-05-14T20:55:35.355Z,15.50
2023-05-14T20:58:01.766Z,14.50
2023-05-14T21:00:28.261Z,13.00
2023-05-14T21:02:54.885Z,13.00
2023-05-14T21:05:21.398Z,15.75
2023-05-14T21:07:48.172Z,15.00
2023-05-14T21:10:14.838Z,15.00
2023-05-14T21:12:42.647Z,18.50
2023-05-14T21:15:10.366Z,8.75
2023-05-14T21:17:36.884Z,10.25
2023-05-14T21:20:03.750Z,7.50
2023-05-14T21:22:30.290Z,10.50
2023-05-14T21:24:56.826Z,12.50
2023-05-14T21:27:23.314Z,11.25
2023-05-14T21:29:49.842Z,12.00
2023-05-14T21:32:16.262Z,10.50
2023-05-14T21:34:43.185Z,9.50
2023-05-14T21:37:10.099Z,9.75
2023-05-14T21:39:36.575Z,11.25
2023-05-14T21:42:03.028Z,10.75
2023-05-14T21:44:31.964Z,10.00
2023-05-14T21:46:59.073Z,8.75
2023-05-14T21:49:25.658Z,8.75
2023-05-14T21:51:54.229Z,8.25
2023-05-14T21:54:21.981Z,9.00
2023-05-14T21:56:49.709Z,7.00
2023-05-14T21:59:16.295Z,8.50
2023-05-14T22:04:12.471Z,9.00
2023-05-14T22:06:39.015Z,9.25
2023-05-14T22:09:05.556Z,10.25
2023-05-14T22:11:32.137Z,8.75
2023-05-14T22:13:58.935Z,9.00
2023-05-14T22:16:26.873Z,9.50
2023-05-14T22:18:53.810Z,9.00
2023-05-14T22:21:20.404Z,9.50
2023-05-14T22:23:46.882Z,8.75
2023-05-14T22:26:13.341Z,10.00
2023-05-14T22:28:42.947Z,9.75
2023-05-14T22:31:10.090Z,8.00
2023-05-14T22:33:36.715Z,9.00
2023-05-14T22:36:03.379Z,8.75
2023-05-14T22:38:29.792Z,8.00
2023-05-14T22:40:56.189Z,9.75
2023-05-14T22:43:22.575Z,8.00
2023-05-14T22:45:49.223Z,9.00
2023-05-14T22:48:15.860Z,9.50
2023-05-14T22:50:42.374Z,10.00
2023-05-14T22:53:08.803Z,9.00
2023-05-14T22:55:35.449Z,8.75
2023-05-14T22:58:02.033Z,9.75
2023-05-14T23:00:28.406Z,10.00
2023-05-14T23:02:55.097Z,9.00
2023-05-14T23:05:21.653Z,10.00
2023-05-14T23:07:48.106Z,7.75
2023-05-14T23:10:14.555Z,11.00
2023-05-14T23:12:40.990Z,9.25
2023-05-14T23:15:07.661Z,9.75
2023-05-14T23:17:34.231Z,9.75
2023-05-14T23:20:16.266Z,9.25
2023-05-14T23:22:44.489Z,11.00
2023-05-14T23:25:11.081Z,12.00
2023-05-14T23:27:39.116Z,10.00
